createdAt,value
2018-08-19T00:02:12.980Z,8.00
2018-08-19T00:04:40.099Z,8.00
2018-08-19T00:07:07.240Z,8.03
2018-08-19T00:09:34.767Z,7.60
2018-08-19T00:12:02.048Z,7.90
2018-08-19T00:14:32.802Z,7.63
2018-08-19T00:17:01.037Z,8.53
2018-08-19T00:19:29.372Z,8.07
2018-08-19T00:21:56.540Z,9.67
2018-08-19T00:24:24.033Z,11.07
2018-08-19T00:26:51.222Z,22.07
2018-08-19T00:29:27.050Z,29.97
2018-08-19T00:31:54.799Z,36.83
2018-08-19T00:34:27.706Z,47.10
2018-08-19T00:36:55.085Z,65.00
2018-08-19T00:39:22.201Z,90.87
2018-08-19T00:41:49.344Z,79.03
2018-08-19T00:44:16.457Z,70.57
2018-08-19T00:46:43.612Z,39.80
2018-08-19T00:49:10.793Z,37.60
2018-08-19T00:51:38.389Z,36.93
2018-08-19T00:54:05.568Z,34.80
2018-08-19T00:56:34.156Z,34.17
2018-08-19T00:59:01.265Z,32.33
2018-08-19T01:01:33.997Z,19.43
2018-08-19T01:04:01.157Z,14.63
2018-08-19T01:06:32.221Z,10.77
2018-08-19T01:08:59.337Z,10.17
2018-08-19T01:11:33.608Z,9.73
2018-08-19T01:14:00.837Z,9.93
2018-08-19T01:16:27.975Z,8.77
2018-08-19T01:18:58.621Z,9.27
2018-08-19T01:21:27.019Z,9.40
2018-08-19T01:23:54.352Z,9.53
2018-08-19T01:26:21.481Z,9.73
2018-08-19T01:28:48.604Z,10.23
2018-08-19T01:31:15.741Z,9.60
2018-08-19T01:33:42.848Z,9.77
2018-08-19T01:36:09.980Z,9.80
2018-08-19T01:38:37.080Z,9.07
2018-08-19T01:41:04.226Z,8.30
2018-08-19T01:43:31.381Z,8.47
2018-08-19T01:45:58.818Z,9.47
2018-08-19T01:48:26.105Z,9.77
2018-08-19T01:50:53.205Z,8.60
2018-08-19T01:53:20.330Z,9.33
2018-08-19T01:55:47.427Z,8.60
2018-08-19T01:58:14.545Z,9.67
2018-08-19T02:00:41.696Z,9.87
2018-08-19T02:03:08.845Z,9.23
2018-08-19T02:05:35.967Z,9.40
2018-08-19T02:08:04.085Z,9.63
2018-08-19T02:10:32.488Z,9.57
2018-08-19T02:13:00.028Z,9.37
2018-08-19T02:15:28.311Z,9.50
2018-08-19T02:17:57.613Z,9.87
2018-08-19T02:20:27.108Z,8.97
2018-08-19T02:23:02.356Z,9.47
2018-08-19T02:25:32.348Z,9.47
2018-08-19T02:27:59.727Z,9.23
2018-08-19T02:30:26.832Z,9.70
2018-08-19T02:32:54.851Z,9.20
2018-08-19T02:35:22.041Z,9.27
2018-08-19T02:37:49.168Z,9.60
2018-08-19T02:40:28.001Z,9.53
2018-08-19T02:42:55.116Z,8.47
2018-08-19T02:45:22.236Z,9.03
2018-08-19T02:47:49.344Z,10.03
2018-08-19T02:50:16.445Z,9.00
2018-08-19T02:52:43.578Z,10.00
2018-08-19T02:55:10.682Z,9.80
2018-08-19T02:57:39.076Z,9.80
2018-08-19T03:00:07.596Z,9.40
2018-08-19T03:02:37.041Z,9.27
2018-08-19T03:05:07.049Z,10.00
2018-08-19T03:07:34.148Z,9.90
2018-08-19T03:10:07.364Z,9.20
2018-08-19T03:12:34.481Z,9.77
2018-08-19T03:15:01.644Z,9.07
2018-08-19T03:17:29.797Z,9.77
2018-08-19T03:19:57.883Z,9.40
2018-08-19T03:22:25.741Z,9.10
2018-08-19T03:24:54.069Z,9.17
2018-08-19T03:27:21.272Z,9.27
2018-08-19T03:29:53.426Z,9.50
2018-08-19T03:32:21.022Z,9.57
2018-08-19T03:34:48.528Z,9.60
2018-08-19T03:37:15.724Z,9.40
2018-08-19T03:39:43.444Z,8.87
2018-08-19T03:42:11.719Z,9.77
2018-08-19T03:44:38.859Z,9.10
2018-08-19T03:47:12.493Z,9.30
2018-08-19T03:49:39.619Z,10.43
2018-08-19T03:52:07.308Z,9.03
2018-08-19T03:54:34.408Z,8.80
2018-08-19T03:57:01.516Z,9.03
2018-08-19T03:59:28.602Z,9.00
2018-08-19T04:01:55.700Z,9.67
2018-08-19T04:04:22.805Z,9.37
2018-08-19T04:06:49.969Z,9.33
2018-08-19T04:09:17.063Z,9.40
2018-08-19T04:11:50.437Z,8.93
2018-08-19T04:14:27.080Z,9.27
2018-08-19T04:16:56.204Z,9.13
2018-08-19T04:19:24.184Z,9.53
2018-08-19T04:21:51.601Z,9.87
2018-08-19T04:24:18.699Z,9.63
2018-08-19T04:26:45.804Z,9.20
2018-08-19T04:29:18.737Z,10.23
2018-08-19T04:31:45.862Z,9.23
2018-08-19T04:34:12.953Z,9.73
2018-08-19T04:36:40.048Z,10.33
2018-08-19T04:39:07.189Z,9.80
2018-08-19T04:41:34.288Z,9.53
2018-08-19T04:44:01.421Z,9.53
2018-08-19T04:46:29.323Z,10.20
2018-08-19T04:48:56.418Z,10.00
2018-08-19T04:51:24.980Z,10.37
2018-08-19T04:53:52.097Z,10.03
2018-08-19T04:56:19.209Z,10.33
2018-08-19T04:58:46.318Z,10.87
2018-08-19T05:01:13.449Z,10.80
2018-08-19T05:03:42.873Z,10.80
2018-08-19T05:06:09.997Z,10.10
2018-08-19T05:08:37.075Z,10.83
2018-08-19T05:11:04.223Z,11.30
2018-08-19T05:13:31.324Z,10.93
2018-08-19T05:15:58.713Z,11.07
2018-08-19T05:18:25.818Z,10.87
2018-08-19T05:21:00.500Z,11.37
2018-08-19T05:23:27.848Z,11.80
2018-08-19T05:25:57.305Z,11.80
2018-08-19T05:28:24.447Z,11.80
2018-08-19T05:30:51.538Z,10.47
2018-08-19T05:33:18.654Z,11.47
2018-08-19T05:35:45.821Z,12.17
2018-08-19T05:38:12.964Z,11.47
2018-08-19T05:40:45.483Z,13.47
2018-08-19T05:43:12.669Z,11.17
2018-08-19T05:45:45.301Z,11.70
2018-08-19T05:48:12.596Z,10.93
2018-08-19T05:50:39.716Z,11.50
2018-08-19T05:53:06.832Z,11.77
2018-08-19T05:55:33.987Z,11.37
2018-08-19T05:58:01.077Z,10.97
2018-08-19T06:00:28.314Z,10.53
2018-08-19T06:02:56.812Z,10.87
2018-08-19T06:05:24.016Z,11.70
2018-08-19T06:08:22.416Z,10.90
2018-08-19T06:10:49.567Z,11.00
2018-08-19T06:13:16.677Z,11.07
2018-08-19T06:15:43.854Z,10.70
2018-08-19T06:18:10.943Z,10.93
2018-08-19T06:20:38.088Z,10.77
2018-08-19T06:23:05.244Z,10.97
2018-08-19T06:25:32.348Z,10.37
2018-08-19T06:27:59.552Z,10.67
2018-08-19T06:30:26.768Z,11.13
2018-08-19T06:32:53.896Z,10.03
2018-08-19T06:35:21.061Z,10.63
2018-08-19T06:37:48.196Z,10.70
2018-08-19T06:40:17.705Z,10.63
2018-08-19T06:42:44.981Z,10.87
2018-08-19T06:45:12.821Z,9.73
2018-08-19T06:47:40.024Z,11.00
2018-08-19T06:50:18.740Z,10.83
2018-08-19T06:52:45.885Z,10.33
2018-08-19T06:55:13.141Z,10.47
2018-08-19T06:57:40.633Z,10.37
2018-08-19T07:00:12.581Z,10.00
2018-08-19T07:02:39.745Z,10.03
2018-08-19T07:05:06.857Z,10.50
2018-08-19T07:07:33.996Z,10.30
2018-08-19T07:10:01.123Z,10.17
2018-08-19T07:12:28.261Z,10.37
2018-08-19T07:14:55.436Z,9.90
2018-08-19T07:17:22.643Z,9.50
2018-08-19T07:19:49.782Z,9.80
2018-08-19T07:22:18.812Z,9.90
2018-08-19T07:24:45.944Z,8.87
2018-08-19T07:27:13.073Z,9.90
2018-08-19T07:29:40.203Z,9.77
2018-08-19T07:32:08.522Z,9.03
2018-08-19T07:34:35.660Z,9.20
2018-08-19T07:37:02.957Z,9.60
2018-08-19T07:39:39.625Z,9.50
2018-08-19T07:42:07.205Z,8.93
2018-08-19T07:44:34.790Z,9.70
2018-08-19T07:47:01.917Z,9.17
2018-08-19T07:49:29.022Z,8.77
2018-08-19T07:51:56.161Z,8.80
2018-08-19T07:54:23.273Z,8.77
2018-08-19T07:56:50.400Z,8.47
2018-08-19T07:59:17.505Z,8.13
2018-08-19T08:01:44.680Z,7.40
2018-08-19T08:04:11.761Z,7.77
2018-08-19T08:06:38.896Z,8.00
2018-08-19T08:09:07.413Z,8.43
2018-08-19T08:11:34.588Z,8.23
2018-08-19T08:14:02.233Z,8.47
2018-08-19T08:16:29.396Z,8.73
2018-08-19T08:18:56.914Z,8.40
2018-08-19T08:21:29.751Z,8.40
2018-08-19T08:23:56.695Z,8.37
2018-08-19T08:26:24.193Z,9.03
2018-08-19T08:28:57.052Z,8.00
2018-08-19T08:31:24.158Z,7.83
2018-08-19T08:33:51.294Z,7.50
2018-08-19T08:36:18.448Z,6.63
2018-08-19T08:38:45.584Z,7.03
2018-08-19T08:41:12.717Z,7.17
2018-08-19T08:43:39.817Z,7.53
2018-08-19T08:46:06.944Z,6.87
2018-08-19T08:48:34.416Z,6.13
2018-08-19T08:51:01.647Z,6.00
2018-08-19T08:53:35.405Z,6.10
2018-08-19T08:56:02.650Z,5.90
2018-08-19T08:58:29.768Z,5.50
2018-08-19T09:00:56.888Z,5.40
2018-08-19T09:03:24.031Z,5.70
2018-08-19T09:05:51.176Z,5.10
2018-08-19T09:08:18.325Z,5.70
2018-08-19T09:10:46.748Z,5.60
2018-08-19T09:13:13.938Z,5.40
2018-08-19T09:15:41.078Z,4.93
2018-08-19T09:18:08.193Z,5.60
2018-08-19T09:20:35.337Z,5.40
2018-08-19T09:23:02.473Z,5.43
2018-08-19T09:25:29.607Z,5.53
2018-08-19T09:27:56.760Z,5.30
2018-08-19T09:30:35.166Z,5.07
2018-08-19T09:33:02.520Z,4.93
2018-08-19T09:35:31.581Z,5.70
2018-08-19T09:38:08.349Z,5.30
2018-08-19T09:40:35.949Z,5.57
2018-08-19T09:43:03.225Z,5.13
2018-08-19T09:45:30.702Z,5.20
2018-08-19T09:47:57.988Z,5.43
2018-08-19T09:50:24.985Z,5.43
2018-08-19T09:52:52.139Z,5.30
2018-08-19T09:55:21.779Z,5.23
2018-08-19T09:57:55.173Z,5.13
2018-08-19T10:00:22.893Z,5.33
2018-08-19T10:02:50.016Z,5.40
2018-08-19T10:05:22.249Z,5.27
2018-08-19T10:07:51.434Z,5.43
2018-08-19T10:10:19.107Z,5.50
2018-08-19T10:12:46.220Z,5.57
2018-08-19T10:15:13.337Z,5.30
2018-08-19T10:17:40.563Z,6.30
2018-08-19T10:20:07.645Z,5.80
2018-08-19T10:22:38.712Z,5.90
2018-08-19T10:25:22.457Z,5.67
2018-08-19T10:27:50.660Z,5.77
2018-08-19T10:30:19.390Z,5.60
2018-08-19T10:32:54.229Z,5.33
2018-08-19T10:35:21.357Z,5.70
2018-08-19T10:37:48.464Z,5.40
2018-08-19T10:40:15.585Z,5.90
2018-08-19T10:42:42.680Z,5.30
2018-08-19T10:45:14.416Z,5.87
2018-08-19T10:47:41.789Z,6.07
2018-08-19T10:50:08.956Z,5.30
2018-08-19T10:52:39.364Z,5.80
2018-08-19T10:55:08.969Z,6.30
2018-08-19T10:57:36.093Z,6.10
2018-08-19T11:00:05.794Z,6.00
2018-08-19T11:02:33.022Z,5.97
2018-08-19T11:05:00.229Z,6.20
2018-08-19T11:07:27.455Z,6.47
2018-08-19T11:10:14.570Z,5.80
2018-08-19T11:12:41.698Z,5.97
2018-08-19T11:15:24.848Z,5.70
2018-08-19T11:17:52.000Z,5.80
2018-08-19T11:20:20.131Z,5.67
2018-08-19T11:22:47.253Z,6.23
2018-08-19T11:25:16.384Z,5.87
2018-08-19T11:27:43.485Z,5.80
2018-08-19T11:30:10.755Z,5.90
2018-08-19T11:32:37.889Z,6.33
2018-08-19T11:35:05.121Z,6.30
2018-08-19T11:37:32.245Z,5.67
2018-08-19T11:39:59.381Z,6.10
2018-08-19T11:42:28.460Z,5.90
2018-08-19T11:44:55.617Z,6.10
2018-08-19T11:47:22.748Z,5.90
2018-08-19T11:49:49.864Z,6.23
2018-08-19T11:52:17.053Z,5.97
2018-08-19T11:54:44.172Z,6.57
2018-08-19T11:57:12.185Z,6.50
2018-08-19T11:59:40.674Z,5.93
2018-08-19T12:02:15.053Z,6.10
2018-08-19T12:04:42.340Z,6.37
2018-08-19T12:07:09.514Z,6.03
2018-08-19T12:09:37.957Z,6.53
2018-08-19T12:12:05.077Z,6.50
2018-08-19T12:14:32.866Z,6.67
2018-08-19T12:17:00.447Z,6.43
2018-08-19T12:19:28.728Z,6.10
2018-08-19T12:21:59.875Z,5.97
2018-08-19T12:24:33.260Z,6.53
2018-08-19T12:27:01.752Z,6.37
2018-08-19T12:29:31.260Z,6.13
2018-08-19T12:32:09.169Z,6.20
2018-08-19T12:34:38.332Z,5.83
2018-08-19T12:37:06.649Z,6.30
2018-08-19T12:39:33.757Z,6.10
2018-08-19T12:42:02.318Z,6.30
2018-08-19T12:44:29.474Z,6.13
2018-08-19T12:47:05.132Z,6.00
2018-08-19T12:49:32.804Z,6.00
2018-08-19T12:52:00.060Z,5.90
2018-08-19T12:54:27.192Z,6.20
2018-08-19T12:56:54.288Z,6.77
2018-08-19T12:59:21.392Z,6.57
2018-08-19T13:01:48.513Z,6.97
2018-08-19T13:04:15.636Z,6.50
2018-08-19T13:06:56.305Z,6.43
2018-08-19T13:09:26.836Z,6.60
2018-08-19T13:11:54.037Z,6.23
2018-08-19T13:14:21.165Z,6.37
2018-08-19T13:16:48.273Z,6.30
2018-08-19T13:19:15.376Z,6.23
2018-08-19T13:21:42.468Z,6.00
2018-08-19T13:24:09.572Z,6.00
2018-08-19T13:26:36.673Z,6.50
2018-08-19T13:29:03.889Z,6.17
2018-08-19T13:31:33.545Z,6.70
2018-08-19T13:34:01.220Z,6.33
2018-08-19T13:36:28.361Z,6.60
2018-08-19T13:38:55.493Z,6.50
2018-08-19T13:41:22.620Z,6.33
2018-08-19T13:43:49.724Z,6.57
2018-08-19T13:46:16.848Z,5.90
2018-08-19T13:48:43.960Z,6.60
2018-08-19T13:51:11.088Z,6.30
2018-08-19T13:53:38.189Z,6.13
2018-08-19T13:56:05.983Z,6.77
2018-08-19T13:58:33.108Z,6.50
2018-08-19T14:01:00.204Z,6.70
2018-08-19T14:03:27.329Z,6.87
2018-08-19T14:05:54.424Z,6.37
2018-08-19T14:08:21.552Z,6.50
2018-08-19T14:10:48.664Z,7.07
2018-08-19T14:13:15.760Z,6.93
2018-08-19T14:15:42.836Z,7.00
2018-08-19T14:18:09.940Z,6.00
2018-08-19T14:20:37.095Z,6.63
2018-08-19T14:23:04.248Z,6.70
2018-08-19T14:25:31.388Z,6.37
2018-08-19T14:27:58.488Z,6.90
2018-08-19T14:30:26.966Z,6.80
2018-08-19T14:32:53.998Z,6.90
2018-08-19T14:35:21.141Z,7.17
2018-08-19T14:37:48.263Z,6.93
2018-08-19T14:40:17.319Z,7.70
2018-08-19T14:42:44.581Z,7.93
2018-08-19T14:45:11.740Z,8.57
2018-08-19T14:47:38.877Z,9.40
2018-08-19T14:50:10.534Z,9.57
2018-08-19T14:52:37.659Z,9.57
2018-08-19T14:55:05.192Z,9.37
2018-08-19T14:57:32.334Z,9.80
2018-08-19T14:59:59.429Z,10.03
2018-08-19T15:02:26.566Z,10.07
2018-08-19T15:04:53.726Z,10.57
2018-08-19T15:07:20.833Z,9.97
2018-08-19T15:09:50.612Z,11.60
2018-08-19T15:12:20.748Z,11.63
2018-08-19T15:14:48.205Z,10.87
2018-08-19T15:17:15.388Z,11.00
2018-08-19T15:19:44.904Z,12.10
2018-08-19T15:22:12.024Z,12.10
2018-08-19T15:24:39.136Z,11.27
2018-08-19T15:27:06.293Z,12.57
2018-08-19T15:29:33.460Z,12.40
2018-08-19T15:32:02.086Z,12.43
2018-08-19T15:34:29.213Z,12.30
2018-08-19T15:36:56.334Z,13.07
2018-08-19T15:39:23.458Z,12.70
2018-08-19T15:41:50.561Z,12.40
2018-08-19T15:44:17.697Z,13.80
2018-08-19T15:46:45.573Z,14.33
2018-08-19T15:49:12.709Z,13.73
2018-08-19T15:51:39.877Z,13.83
2018-08-19T15:54:07.938Z,14.00
2018-08-19T15:56:35.221Z,13.50
2018-08-19T15:59:04.493Z,14.27
2018-08-19T16:01:32.513Z,13.20
2018-08-19T16:04:04.237Z,13.73
2018-08-19T16:06:31.384Z,12.90
2018-08-19T16:08:58.701Z,12.40
2018-08-19T16:11:25.910Z,12.37
2018-08-19T16:13:53.032Z,12.17
2018-08-19T16:16:23.057Z,12.87
2018-08-19T16:18:51.571Z,12.70
2018-08-19T16:21:18.664Z,12.13
2018-08-19T16:23:45.985Z,12.17
2018-08-19T16:26:13.089Z,12.37
2018-08-19T16:28:40.208Z,11.97
2018-08-19T16:31:07.368Z,11.67
2018-08-19T16:33:34.506Z,11.07
2018-08-19T16:36:01.666Z,12.00
2018-08-19T16:38:28.836Z,11.03
2018-08-19T16:40:55.945Z,11.30
2018-08-19T16:43:23.056Z,11.43
2018-08-19T16:45:50.169Z,11.27
2018-08-19T16:48:17.292Z,11.40
2018-08-19T16:50:44.507Z,10.90
2018-08-19T16:53:11.548Z,10.77
2018-08-19T16:55:38.691Z,10.67
2018-08-19T16:58:05.820Z,11.40
2018-08-19T17:00:32.928Z,10.57
2018-08-19T17:03:00.288Z,11.37
2018-08-19T17:05:32.213Z,10.70
2018-08-19T17:07:59.334Z,10.40
2018-08-19T17:10:27.928Z,11.30
2018-08-19T17:12:55.494Z,11.03
2018-08-19T17:15:22.612Z,11.07
2018-08-19T17:17:49.737Z,11.60
2018-08-19T17:20:17.157Z,11.00
2018-08-19T17:22:44.272Z,11.03
2018-08-19T17:25:11.408Z,11.50
2018-08-19T17:27:38.587Z,11.70
2018-08-19T17:30:10.329Z,11.50
2018-08-19T17:32:37.503Z,11.23
2018-08-19T17:35:04.552Z,11.50
2018-08-19T17:37:31.732Z,11.43
2018-08-19T17:39:59.209Z,11.57
2018-08-19T17:42:26.333Z,11.37
2018-08-19T17:44:53.457Z,12.70
2018-08-19T17:47:20.568Z,12.83
2018-08-19T17:49:47.696Z,11.90
2018-08-19T17:52:14.834Z,12.33
2018-08-19T17:54:41.949Z,12.30
2018-08-19T17:57:09.094Z,11.40
2018-08-19T17:59:36.216Z,12.03
2018-08-19T18:02:03.383Z,11.43
2018-08-19T18:04:48.168Z,12.33
2018-08-19T18:07:23.676Z,12.20
2018-08-19T18:09:59.344Z,11.80
2018-08-19T18:12:26.496Z,11.57
2018-08-19T18:14:53.823Z,11.57
2018-08-19T18:17:20.921Z,11.17
2018-08-19T18:19:48.026Z,10.90
2018-08-19T18:22:17.549Z,11.10
2018-08-19T18:24:44.780Z,10.43
2018-08-19T18:27:11.910Z,10.83
2018-08-19T18:29:41.003Z,11.27
2018-08-19T18:32:08.155Z,11.17
2018-08-19T18:34:37.221Z,11.57
2018-08-19T18:37:04.412Z,11.23
2018-08-19T18:39:31.518Z,10.33
2018-08-19T18:41:58.634Z,11.30
2018-08-19T18:44:25.743Z,10.50
2018-08-19T18:46:52.852Z,10.50
2018-08-19T18:49:21.629Z,10.43
2018-08-19T18:51:50.166Z,10.30
2018-08-19T18:54:24.389Z,10.23
2018-08-19T18:56:51.496Z,9.73
2018-08-19T18:59:18.612Z,10.97
2018-08-19T19:01:45.757Z,9.80
2018-08-19T19:04:12.877Z,9.43
2018-08-19T19:06:39.993Z,10.00
2018-08-19T19:09:07.465Z,9.80
2018-08-19T19:11:34.596Z,10.03
2018-08-19T19:14:06.365Z,9.67
2018-08-19T19:16:37.044Z,10.33
2018-08-19T19:19:04.193Z,10.10
2018-08-19T19:21:31.296Z,10.40
2018-08-19T19:23:58.421Z,9.60
2018-08-19T19:26:31.280Z,10.20
2018-08-19T19:28:58.360Z,10.17
2018-08-19T19:31:25.473Z,10.30
2018-08-19T19:33:54.709Z,10.00
2018-08-19T19:36:21.816Z,9.60
2018-08-19T19:38:53.509Z,10.30
2018-08-19T19:41:21.704Z,10.33
2018-08-19T19:43:48.873Z,10.43
2018-08-19T19:46:16.144Z,11.10
2018-08-19T19:48:43.234Z,10.53
2018-08-19T19:51:10.353Z,10.90
2018-08-19T19:53:37.452Z,10.60
2018-08-19T19:56:09.237Z,11.20
2018-08-19T19:58:36.429Z,11.03
2018-08-19T20:01:03.564Z,10.00
2018-08-19T20:03:33.040Z,10.97
2018-08-19T20:06:01.810Z,10.73
2018-08-19T20:08:28.918Z,11.53
2018-08-19T20:10:56.056Z,11.70
2018-08-19T20:13:23.161Z,11.43
2018-08-19T20:15:50.240Z,12.13
2018-08-19T20:18:17.341Z,11.17
2018-08-19T20:20:44.425Z,11.90
2018-08-19T20:23:17.409Z,11.53
2018-08-19T20:25:44.906Z,11.50
2018-08-19T20:28:12.002Z,11.03
2018-08-19T20:30:40.220Z,11.10
2018-08-19T20:33:15.441Z,11.03
2018-08-19T20:35:42.549Z,11.40
2018-08-19T20:38:09.658Z,11.43
2018-08-19T20:40:36.785Z,11.23
2018-08-19T20:43:08.518Z,11.73
2018-08-19T20:45:35.644Z,11.90
2018-08-19T20:48:02.761Z,11.90
2018-08-19T20:50:29.873Z,11.83
2018-08-19T20:52:56.989Z,11.30
2018-08-19T20:55:24.093Z,11.07
2018-08-19T20:57:51.216Z,12.33
2018-08-19T21:00:18.332Z,12.37
2018-08-19T21:02:45.432Z,12.17
2018-08-19T21:05:12.556Z,11.60
2018-08-19T21:07:42.378Z,12.80
2018-08-19T21:10:09.505Z,12.33
2018-08-19T21:12:36.606Z,12.50
2018-08-19T21:15:03.735Z,12.57
2018-08-19T21:17:30.861Z,11.87
2018-08-19T21:19:57.953Z,12.10
2018-08-19T21:22:25.073Z,12.93
2018-08-19T21:24:52.197Z,12.67
2018-08-19T21:27:19.307Z,11.47
2018-08-19T21:29:46.533Z,12.17
2018-08-19T21:32:13.572Z,12.07
2018-08-19T21:34:40.700Z,11.63
2018-08-19T21:37:07.841Z,11.97
2018-08-19T21:39:34.932Z,12.10
2018-08-19T21:42:02.046Z,12.23
2018-08-19T21:44:29.161Z,11.83
2018-08-19T21:46:56.252Z,11.20
2018-08-19T21:49:23.360Z,11.77
2018-08-19T21:51:50.465Z,11.43
2018-08-19T21:54:17.599Z,11.50
2018-08-19T21:56:44.736Z,11.17
2018-08-19T21:59:26.565Z,11.50
2018-08-19T22:01:57.664Z,10.57
2018-08-19T22:04:24.936Z,10.50
2018-08-19T22:06:52.049Z,10.83
2018-08-19T22:09:29.648Z,10.80
2018-08-19T22:11:57.944Z,11.10
2018-08-19T22:14:25.080Z,10.77
2018-08-19T22:16:56.866Z,10.50
2018-08-19T22:19:24.621Z,10.67
2018-08-19T22:21:51.726Z,10.47
2018-08-19T22:24:18.838Z,10.67
2018-08-19T22:26:45.924Z,11.03
2018-08-19T22:29:14.604Z,10.73
2018-08-19T22:31:41.762Z,9.97
2018-08-19T22:34:08.884Z,10.03
2018-08-19T22:36:35.982Z,9.20
2018-08-19T22:39:05.362Z,9.53
2018-08-19T22:41:33.189Z,8.37
2018-08-19T22:44:00.277Z,7.77
2018-08-19T22:46:27.758Z,8.03
2018-08-19T22:48:55.541Z,7.87
2018-08-19T22:51:22.671Z,7.77
2018-08-19T22:53:52.496Z,7.30
2018-08-19T22:56:19.972Z,6.60
2018-08-19T22:58:47.072Z,6.53
2018-08-19T23:01:14.213Z,6.40
2018-08-19T23:03:41.349Z,6.77
2018-08-19T23:06:08.545Z,6.40
2018-08-19T23:08:35.641Z,6.20
2018-08-19T23:11:03.416Z,7.03
2018-08-19T23:13:42.094Z,5.80
2018-08-19T23:16:10.281Z,6.10
2018-08-19T23:18:38.148Z,5.97
2018-08-19T23:21:05.373Z,6.57
2018-08-19T23:23:32.541Z,5.60
2018-08-19T23:25:59.682Z,5.80
2018-08-19T23:28:26.955Z,6.00
2018-08-19T23:30:54.172Z,6.80
2018-08-19T23:33:21.301Z,6.40
2018-08-19T23:35:49.134Z,8.00
2018-08-19T23:38:16.568Z,8.50
2018-08-19T23:40:43.704Z,11.40
2018-08-19T23:43:10.788Z,13.77
2018-08-19T23:45:37.912Z,14.17
2018-08-19T23:48:05.301Z,16.20
2018-08-19T23:50:32.444Z,16.70
2018-08-19T23:52:59.572Z,17.03
2018-08-19T23:55:26.672Z,16.40
2018-08-19T23:57:53.763Z,16.63
